createdAt,value
2023-05-22T00:00:06.909Z,0
2023-05-22T00:05:22.493Z,0
2023-05-22T00:10:39.261Z,0
2023-05-22T00:15:53.495Z,0
2023-05-22T01:03:21.521Z,0
2023-05-22T01:08:36.696Z,0
2023-05-22T01:13:45.238Z,0
2023-05-22T01:19:00.796Z,0
2023-05-22T01:24:16.655Z,0
2023-05-22T01:29:32.442Z,0
2023-05-22T01:34:50.503Z,0
2023-05-22T01:40:03.181Z,0
2023-05-22T01:45:17.083Z,0
2023-05-22T01:50:33.251Z,0
2023-05-22T01:55:49.725Z,0
2023-05-22T02:01:05.919Z,0
2023-05-22T02:06:21.751Z,0
2023-05-22T02:11:37.188Z,0
2023-05-22T02:16:53.822Z,0
2023-05-22T02:22:09.184Z,0
2023-05-22T02:27:23.799Z,0
2023-05-22T02:32:39.077Z,0
2023-05-22T02:37:53.863Z,0
2023-05-22T02:43:08.699Z,0
2023-05-22T02:48:23.600Z,0
2023-05-22T02:53:38.616Z,0
2023-05-22T02:58:54.364Z,0
2023-05-22T03:04:10.590Z,1
2023-05-22T03:09:26.043Z,3
2023-05-22T03:14:42.916Z,6
2023-05-22T03:18:52.290Z,10
2023-05-22T03:24:07.599Z,16
2023-05-22T03:29:22.340Z,23
2023-05-22T03:34:37.086Z,34
2023-05-22T03:39:52.871Z,51
2023-05-22T03:45:08.690Z,75
2023-05-22T03:50:23.260Z,107
2023-05-22T03:55:39.150Z,148
2023-05-22T04:00:55.155Z,196
2023-05-22T04:06:10.946Z,250
2023-05-22T04:11:27.418Z,313
2023-05-22T04:16:41.559Z,385
2023-05-22T04:21:56.218Z,460
2023-05-22T04:27:11.006Z,531
2023-05-22T04:32:26.661Z,592
2023-05-22T04:37:41.226Z,649
2023-05-22T04:42:56.607Z,710
2023-05-22T04:48:11.154Z,794
2023-05-22T04:53:27.664Z,895
2023-05-22T04:58:43.394Z,977
2023-05-22T05:03:58.625Z,1045
2023-05-22T05:09:14.924Z,1102
2023-05-22T05:14:29.846Z,1164
2023-05-22T05:19:44.405Z,1202
2023-05-22T05:25:00.697Z,1201
2023-05-22T05:51:19.325Z,1625
2023-05-22T05:56:35.291Z,1543
2023-05-22T06:01:51.255Z,1671
2023-05-22T06:07:05.953Z,1729
2023-05-22T06:12:20.767Z,1875
2023-05-22T06:17:37.084Z,1807
2023-05-22T06:22:52.056Z,1733
2023-05-22T06:28:08.067Z,1826
2023-05-22T06:33:24.928Z,1884
2023-05-22T06:38:39.927Z,1770
2023-05-22T06:43:55.665Z,1790
2023-05-22T06:49:11.575Z,1875
2023-05-22T06:54:27.233Z,2041
2023-05-22T06:59:43.018Z,2074
2023-05-22T07:04:57.879Z,2083
2023-05-22T07:10:14.376Z,2113
2023-05-22T07:15:29.839Z,2101
2023-05-22T07:20:44.535Z,2064
2023-05-22T07:26:00.734Z,1796
2023-05-22T07:31:16.329Z,1944
2023-05-22T07:36:31.066Z,2146
2023-05-22T07:41:46.448Z,2199
2023-05-22T07:47:01.802Z,2201
2023-05-22T07:52:16.829Z,1867
2023-05-22T07:57:33.236Z,1937
2023-05-22T08:02:48.636Z,1814
2023-05-22T08:08:03.887Z,1884
2023-05-22T08:13:21.743Z,1924
2023-05-22T08:18:36.444Z,1953
2023-05-22T08:23:50.679Z,1868
2023-05-22T08:29:06.788Z,1764
2023-05-22T08:34:22.786Z,1873
2023-05-22T08:39:38.601Z,1946
2023-05-22T08:44:53.952Z,1949
2023-05-22T08:50:09.587Z,1753
2023-05-22T08:55:26.639Z,1820
2023-05-22T09:00:43.380Z,1852
2023-05-22T09:05:57.639Z,1960
2023-05-22T09:11:12.913Z,2058
2023-05-22T09:16:28.100Z,2080
2023-05-22T09:21:43.985Z,2085
2023-05-22T09:26:59.405Z,2113
2023-05-22T09:32:13.968Z,2145
2023-05-22T09:37:30.064Z,2182
2023-05-22T09:42:44.688Z,2318
2023-05-22T09:47:59.173Z,2432
2023-05-22T10:35:27.567Z,2565
2023-05-22T10:40:36.639Z,3220
2023-05-22T10:45:52.405Z,3064
2023-05-22T10:51:08.063Z,3695
2023-05-22T10:56:26.098Z,3547
2023-05-22T11:01:39.378Z,3193
2023-05-22T11:06:55.688Z,3282
2023-05-22T11:12:10.767Z,3516
2023-05-22T11:17:26.502Z,3917
2023-05-22T11:22:42.264Z,3969
2023-05-22T11:27:56.779Z,3928
2023-05-22T11:33:11.780Z,4186
2023-05-22T11:38:26.254Z,3934
2023-05-22T11:43:42.939Z,3701
2023-05-22T11:48:58.551Z,4334
2023-05-22T11:54:14.423Z,4207
2023-05-22T11:59:30.153Z,4168
2023-05-22T12:04:45.105Z,3707
2023-05-22T12:10:00.693Z,4184
2023-05-22T12:15:17.016Z,4273
2023-05-22T12:20:33.273Z,4453
2023-05-22T12:25:49.324Z,4263
2023-05-22T12:31:04.364Z,4439
2023-05-22T12:36:19.813Z,5627
2023-05-22T12:41:35.984Z,4947
2023-05-22T12:46:51.480Z,5239
2023-05-22T12:52:07.059Z,5132
2023-05-22T12:57:23.084Z,5262
2023-05-22T13:02:38.837Z,5284
2023-05-22T13:07:54.922Z,5472
2023-05-22T13:13:10.672Z,6358
2023-05-22T13:18:25.574Z,5572
2023-05-22T13:23:41.345Z,5819
2023-05-22T13:29:00.767Z,5416
2023-05-22T13:34:15.893Z,5246
2023-05-22T13:39:30.851Z,6216
2023-05-22T13:44:47.312Z,4496
2023-05-22T13:50:02.767Z,5806
2023-05-22T13:55:18.922Z,5881
2023-05-22T14:00:34.326Z,6217
2023-05-22T14:05:51.127Z,6558
2023-05-22T14:11:05.894Z,6795
2023-05-22T14:16:21.557Z,7341
2023-05-22T14:21:37.814Z,7215
2023-05-22T14:26:54.061Z,7131
2023-05-22T14:32:09.501Z,7145
2023-05-22T14:37:25.887Z,4220
2023-05-22T15:24:56.511Z,3351
2023-05-22T15:30:05.059Z,3384
2023-05-22T15:35:19.301Z,7082
2023-05-22T15:40:34.734Z,8378
2023-05-22T15:45:49.739Z,7113
2023-05-22T15:51:05.240Z,8054
2023-05-22T15:56:21.006Z,3777
2023-05-22T16:01:38.085Z,3985
2023-05-22T16:06:54.352Z,4630
2023-05-22T16:12:09.010Z,2390
2023-05-22T16:17:24.632Z,1716
2023-05-22T16:22:49.334Z,1417
2023-05-22T16:27:55.153Z,1472
2023-05-22T16:33:11.037Z,1863
2023-05-22T16:38:27.736Z,2122
2023-05-22T16:43:43.329Z,949
2023-05-22T16:48:58.470Z,473
2023-05-22T16:54:14.734Z,294
2023-05-22T16:59:31.225Z,301
2023-05-22T17:04:45.708Z,282
2023-05-22T17:10:02.203Z,446
2023-05-22T17:15:16.786Z,737
2023-05-22T17:20:33.204Z,885
2023-05-22T17:25:48.213Z,1118
2023-05-22T17:31:03.342Z,1368
2023-05-22T17:36:21.091Z,1262
2023-05-22T17:41:36.191Z,1095
2023-05-22T17:46:50.941Z,1113
2023-05-22T17:52:06.663Z,2731
2023-05-22T17:57:23.173Z,2257
2023-05-22T18:02:38.512Z,1892
2023-05-22T18:07:53.887Z,1889
2023-05-22T18:13:10.721Z,1768
2023-05-22T18:18:27.238Z,1370
2023-05-22T18:23:42.381Z,1166
2023-05-22T18:28:57.791Z,1014
2023-05-22T18:34:12.751Z,756
2023-05-22T18:39:27.866Z,769
2023-05-22T19:26:57.526Z,99
2023-05-22T19:32:06.052Z,52
2023-05-22T19:37:21.826Z,25
2023-05-22T19:42:37.313Z,13
2023-05-22T19:47:53.662Z,9
2023-05-22T19:53:09.810Z,5
2023-05-22T19:58:25.623Z,3
2023-05-22T20:03:41.223Z,1
2023-05-22T20:08:56.827Z,0
2023-05-22T20:14:11.516Z,0
2023-05-22T20:19:33.169Z,0
2023-05-22T20:24:46.729Z,0
2023-05-22T20:30:02.143Z,0
2023-05-22T20:35:17.077Z,0
2023-05-22T20:40:33.232Z,0
2023-05-22T20:45:48.851Z,0
2023-05-22T20:51:03.708Z,0
2023-05-22T20:56:19.259Z,0
2023-05-22T21:01:35.687Z,0
2023-05-22T21:06:50.855Z,0
2023-05-22T21:12:05.648Z,0
2023-05-22T21:17:20.518Z,0
2023-05-22T21:22:37.022Z,0
2023-05-22T21:27:53.556Z,0
2023-05-22T21:33:08.809Z,0
2023-05-22T21:38:24.284Z,0
2023-05-22T21:43:41.089Z,0
2023-05-22T21:48:56.534Z,0
2023-05-22T21:54:12.748Z,0
2023-05-22T21:59:27.680Z,0
2023-05-22T22:04:43.161Z,0
2023-05-22T22:09:59.564Z,0
2023-05-22T22:15:15.127Z,0
2023-05-22T22:20:45.930Z,0
2023-05-22T22:25:46.853Z,0
2023-05-22T22:31:01.687Z,0
2023-05-22T22:36:17.912Z,0
2023-05-22T22:41:33.034Z,0
2023-05-22T23:29:04.214Z,0
2023-05-22T23:34:12.101Z,0
2023-05-22T23:39:27.909Z,0
2023-05-22T23:44:43.385Z,0
2023-05-22T23:49:59.240Z,0
2023-05-22T23:55:13.870Z,0
